This is the latest recevied weather packets stored in our database for station/object KA0EGE. If no packets are shown the sender has not sent any weather packets the latest 10 day(s).
| Time | Temp. | Humidity | Pressure | Rain* | Wind** | Luminosity | Snow |
|---|---|---|---|---|---|---|---|
| 1777134433 | 20.56° C | 99% | 1014.4 hPa | 0 mm | - | 174 W/m² | - |
| 1777134130 | 20.56° C | 99% | 1014.6 hPa | 1.27 mm | - | 158 W/m² | - |
| 1777133827 | 20.56° C | 98% | 1014.4 hPa | 14.99 mm | - | 124 W/m² | - |
| 1777133522 | 20° C | 97% | 1014.6 hPa | 30.73 mm | - | 100 W/m² | - |
| 1777133216 | 21.67° C | 93% | 1015.1 hPa | 21.08 mm | - | 59 W/m² | - |
| 1777132911 | 23.89° C | 91% | 1014.4 hPa | 0 mm | - | 25 W/m² | - |
| 1777132607 | 23.89° C | 91% | 1014.5 hPa | 0 mm | - | 159 W/m² | - |
| 1777132304 | 23.89° C | 92% | 1014.5 hPa | 0 mm | - | 379 W/m² | - |
| 1777132001 | 23.33° C | 92% | 1014.6 hPa | 1.78 mm | - | 382 W/m² | - |
| 1777131699 | 23.33° C | 92% | 1014.5 hPa | 3.05 mm | - | 236 W/m² | - |
| 1777131398 | 23.33° C | 91% | 1014.5 hPa | 3.05 mm | - | 142 W/m² | - |
| 1777131097 | 23.89° C | 90% | 1014.7 hPa | 0 mm | - | 132 W/m² | - |
| 1777130794 | 23.89° C | 92% | 1014.5 hPa | 0 mm | - | 134 W/m² | - |
| 1777130490 | 23.33° C | 91% | 1014.6 hPa | 0 mm | - | 137 W/m² | - |
| 1777130186 | 23.33° C | 95% | 1014.6 hPa | 0 mm | - | 120 W/m² | - |
| 1777129882 | 23.33° C | 94% | 1014.8 hPa | 0 mm | - | 158 W/m² | - |
| 1777129577 | 23.33° C | 93% | 1014.8 hPa | 0 mm | - | 127 W/m² | - |
| 1777129277 | 23.33° C | 94% | 1014.6 hPa | 0 mm | - | 115 W/m² | - |
| 1777128972 | 23.33° C | 95% | 1014.8 hPa | 0 mm | - | 150 W/m² | - |
| 1777128669 | 23.33° C | 95% | 1014.6 hPa | 0 mm | - | 231 W/m² | - |
| 1777128367 | 23.33° C | 94% | 1014.9 hPa | 1.78 mm | - | 266 W/m² | - |
| 1777128063 | 23.33° C | 95% | 1014.7 hPa | 3.05 mm | - | 216 W/m² | - |
| 1777127761 | 23.89° C | 92% | 1014.9 hPa | 1.27 mm | - | 128 W/m² | - |
| 1777127458 | 23.89° C | 91% | 1014.9 hPa | 0 mm | - | 112 W/m² | - |
| 1777127154 | 23.89° C | 90% | 1015 hPa | 0 mm | - | 130 W/m² | - |
* Rain latest hour (hover to see other rain measurements)
** Current wind speed in m/s (hover to see current wind gust speed)